Colden Common, United Kingdom
Current Conditions -  °F | °C
As of 2:20 PM on Thursday 18 Dec 2014 (Local Time) from EGHI Reporting Station
Drizzle Drizzle  
Wind Chill: 54°   Ceiling: 1800
Heat Index: 54°   Visibility: 4mi
Dew Point: 50°   Wind: 17mph
Humidity: 88%   Direction: 250°WSW
Pressure: 29.88"   Gusts: 30mph
Location:  50.99°N, 1.31°W
Report Text: EGHI 181420Z 25015G26KT 7000 -DZ SCT012 BKN018 12/10 Q1012
Loading
Personal Weather Stations






























Interactive Weather Map New forecast layout! Learn more

10-Day Weather Forecast

Advertisements
Track Severe Weather on mobile